Time;durP1;ratioP1;P1;durP2;ratioP2;P2;SDS_P1;SDS_P2;PMS_P1;PMS_P2;Temp;Humidity;BMP_temperature;BMP_pressure;BME280_temperature;BME280_humidity;BME280_pressure;Samples;Min_cycle;Max_cycle;Signal;HPM_P1;HPM_P2
2022/03/07 00:00:59;;;;;;;7.75;4.90;;;;;;;1.18;60.49;102067.72;4951732;28;20053;-84
2022/03/07 00:03:26;;;;;;;5.68;4.40;;;;;;;1.19;60.33;102066.00;4955199;28;20056;-84
2022/03/07 00:05:52;;;;;;;5.57;5.03;;;;;;;1.20;60.45;102065.22;4958343;28;20122;-84
2022/03/07 00:08:19;;;;;;;4.75;4.10;;;;;;;1.21;60.30;102075.59;4935261;28;20403;-85
2022/03/07 00:10:45;;;;;;;6.38;5.30;;;;;;;1.21;59.62;102069.56;4946499;28;20061;-85
2022/03/07 00:13:12;;;;;;;6.82;4.53;;;;;;;1.20;60.20;102068.69;4964842;28;20610;-84
2022/03/07 00:15:38;;;;;;;9.20;4.97;;;;;;;1.20;60.46;102065.22;4943725;28;20050;-83
2022/03/07 00:18:05;;;;;;;8.25;5.72;;;;;;;1.19;60.53;102073.75;4957719;28;20047;-84
2022/03/07 00:20:32;;;;;;;7.03;6.32;;;;;;;1.19;60.87;102078.91;4959161;28;20057;-85
2022/03/07 00:22:59;;;;;;;10.43;5.95;;;;;;;1.19;60.81;102077.22;4978217;28;20328;-85
2022/03/07 00:25:25;;;;;;;9.88;6.00;;;;;;;1.15;60.47;102072.72;4950659;28;20061;-85
2022/03/07 00:27:52;;;;;;;6.93;5.70;;;;;;;1.14;60.57;102068.38;4942463;28;20043;-84
2022/03/07 00:30:19;;;;;;;5.55;4.70;;;;;;;1.13;60.79;102066.59;4964389;28;20055;-84
2022/03/07 00:32:46;;;;;;;7.50;5.70;;;;;;;1.15;60.62;102073.59;4951536;28;20140;-84
2022/03/07 00:35:13;;;;;;;7.10;5.80;;;;;;;1.14;60.74;102070.94;4943795;28;20493;-84
2022/03/07 00:37:39;;;;;;;6.28;5.60;;;;;;;1.15;60.40;102072.72;4945105;28;20101;-84
2022/03/07 00:40:09;;;;;;;7.78;6.60;;;;;;;1.15;60.82;102057.25;4943722;28;20061;-85
2022/03/07 00:42:38;;;;;;;7.15;5.07;;;;;;;1.14;60.56;102063.22;4958575;28;20079;-83
2022/03/07 00:45:10;;;;;;;6.88;5.45;;;;;;;1.14;60.81;102070.94;4948351;28;20064;-85
2022/03/07 00:47:37;;;;;;;6.68;5.05;;;;;;;1.14;60.64;102071.81;4959185;28;20050;-85
2022/03/07 00:50:05;;;;;;;7.45;5.60;;;;;;;1.16;60.77;102079.63;4959331;28;20050;-84
2022/03/07 00:52:32;;;;;;;7.18;5.80;;;;;;;1.16;60.44;102079.63;4954509;28;20046;-84
2022/03/07 00:54:58;;;;;;;6.07;5.32;;;;;;;1.17;60.34;102078.84;4955409;28;20056;-84
2022/03/07 00:57:25;;;;;;;6.47;5.85;;;;;;;1.15;60.87;102073.59;4960076;28;20069;-85
2022/03/07 00:59:51;;;;;;;10.02;6.07;;;;;;;1.15;60.70;102077.88;4945877;28;20048;-85
2022/03/07 01:02:18;;;;;;;7.13;6.32;;;;;;;1.14;61.49;102074.41;4964264;28;20050;-83
2022/03/07 01:04:44;;;;;;;7.53;6.07;;;;;;;1.13;61.66;102071.75;4956200;28;20058;-83
2022/03/07 01:07:11;;;;;;;8.52;6.82;;;;;;;1.11;61.28;102076.84;4961765;28;20066;-85
2022/03/07 01:09:38;;;;;;;7.85;6.80;;;;;;;1.10;61.70;102082.78;4958951;28;20508;-83
2022/03/07 01:12:05;;;;;;;10.52;6.50;;;;;;;1.09;61.98;102082.72;4974028;28;20405;-84
2022/03/07 01:14:32;;;;;;;6.22;5.60;;;;;;;1.09;62.11;102087.88;4963532;28;20634;-84
2022/03/07 01:16:58;;;;;;;7.13;6.03;;;;;;;1.09;62.37;102086.16;4962066;28;20050;-85
2022/03/07 01:19:25;;;;;;;7.78;6.53;;;;;;;1.10;62.17;102087.94;4937622;28;20047;-84
2022/03/07 01:21:51;;;;;;;8.82;7.32;;;;;;;1.11;62.44;102089.72;4962760;28;20050;-84
2022/03/07 01:24:19;;;;;;;12.20;7.05;;;;;;;1.12;62.53;102088.03;4942359;28;20132;-84
2022/03/07 01:26:46;;;;;;;9.82;7.60;;;;;;;1.12;62.70;102086.34;4947884;28;20137;-84
2022/03/07 01:29:12;;;;;;;9.75;7.88;;;;;;;1.12;62.65;102077.72;4963339;28;20807;-84
2022/03/07 01:31:39;;;;;;;8.45;6.45;;;;;;;1.11;62.86;102076.84;4942597;28;20057;-84
2022/03/07 01:34:06;;;;;;;7.15;6.38;;;;;;;1.11;62.55;102071.66;4964075;28;20054;-85
2022/03/07 01:36:32;;;;;;;9.10;6.28;;;;;;;1.09;62.72;102068.13;4959941;28;20053;-85
2022/03/07 01:38:58;;;;;;;6.25;5.65;;;;;;;1.08;62.26;102073.19;4956226;28;20083;-83
2022/03/07 01:41:25;;;;;;;8.70;5.85;;;;;;;1.04;62.66;102066.97;4960516;28;20050;-84
2022/03/07 01:43:52;;;;;;;11.93;6.97;;;;;;;1.04;62.45;102066.09;4961749;28;20697;-85
2022/03/07 01:46:18;;;;;;;9.00;5.93;;;;;;;1.01;62.67;102066.84;4961457;28;20511;-84
2022/03/07 01:48:45;;;;;;;7.72;6.20;;;;;;;1.01;62.86;102068.53;4963401;28;20056;-84
2022/03/07 01:51:14;;;;;;;8.02;7.05;;;;;;;1.02;63.12;102068.63;4959574;28;20053;-84
2022/03/07 01:53:41;;;;;;;8.80;7.25;;;;;;;1.01;63.00;102071.13;4948194;28;20063;-84
2022/03/07 01:56:08;;;;;;;8.90;7.63;;;;;;;0.99;63.04;102059.03;4945995;28;20050;-85
2022/03/07 01:58:35;;;;;;;8.80;6.65;;;;;;;0.95;63.45;102066.50;4963037;28;20048;-83
2022/03/07 02:01:02;;;;;;;8.35;7.32;;;;;;;0.92;63.73;102068.94;4950078;28;20058;-85
2022/03/07 02:03:29;;;;;;;11.73;6.47;;;;;;;0.94;63.60;102072.44;4958284;28;20058;-84
2022/03/07 02:05:55;;;;;;;7.55;6.28;;;;;;;0.94;63.51;102068.22;4947751;28;20053;-83
2022/03/07 02:08:22;;;;;;;9.25;6.47;;;;;;;0.93;63.46;102062.97;4947947;28;20886;-84
2022/03/07 02:10:48;;;;;;;8.32;6.47;;;;;;;0.96;63.56;102070.84;4942825;28;20053;-84
2022/03/07 02:13:18;;;;;;;8.95;6.68;;;;;;;0.96;63.79;102066.56;4950290;28;20073;-84
2022/03/07 02:15:54;;;;;;;10.38;6.50;;;;;;;0.98;63.84;102064.97;4946729;28;20049;-85
2022/03/07 02:18:21;;;;;;;8.68;6.97;;;;;;;0.97;63.94;102062.31;4959290;28;20078;-84
2022/03/07 02:20:53;;;;;;;7.43;5.97;;;;;;;0.97;64.19;102057.16;4951905;28;20047;-84
2022/03/07 02:23:19;;;;;;;8.13;6.70;;;;;;;0.94;64.24;102060.47;4960577;28;20053;-84
2022/03/07 02:25:47;;;;;;;9.23;5.80;;;;;;;0.94;64.00;102054.41;4966649;28;20050;-84
2022/03/07 02:28:15;;;;;;;8.70;6.80;;;;;;;0.93;64.20;102048.38;4958713;28;20057;-83
2022/03/07 02:30:42;;;;;;;9.80;7.50;;;;;;;0.94;64.17;102051.81;4979773;28;20047;-84
2022/03/07 02:33:13;;;;;;;9.30;6.57;;;;;;;0.93;63.98;102056.09;4949580;28;20054;-84
2022/03/07 02:35:40;;;;;;;12.20;7.25;;;;;;;0.93;64.18;102056.09;4961745;28;20319;-84
2022/03/07 02:38:14;;;;;;;10.23;6.43;;;;;;;0.94;63.54;102047.56;4950004;28;20041;-84
2022/03/07 02:40:42;;;;;;;;;;;;;;;0.95;64.13;102051.94;4979076;28;20046;-84
2022/03/07 02:43:09;;;;;;;10.00;6.00;;;;;;;0.96;63.64;102051.09;4956667;28;20009;-85
2022/03/07 02:45:36;;;;;;;13.30;7.65;;;;;;;0.97;64.24;102050.31;4971205;28;20558;-84
2022/03/07 02:48:02;;;;;;;9.25;6.70;;;;;;;0.99;63.87;102053.88;4957724;28;20042;-84
2022/03/07 02:50:29;;;;;;;13.43;7.00;;;;;;;1.00;64.36;102047.00;4950813;28;20050;-83
2022/03/07 02:52:56;;;;;;;10.90;7.15;;;;;;;1.00;64.11;102039.25;4965828;28;20053;-84
2022/03/07 02:55:23;;;;;;;7.75;6.30;;;;;;;0.99;64.15;102045.22;4956924;28;20100;-84
2022/03/07 02:57:49;;;;;;;8.55;6.95;;;;;;;0.98;64.32;102038.31;4947686;28;20066;-84
2022/03/07 03:00:16;;;;;;;8.38;6.82;;;;;;;0.95;63.87;102044.19;4954694;28;20042;-84
2022/03/07 03:02:43;;;;;;;8.50;6.45;;;;;;;0.95;64.28;102040.72;4966856;28;20064;-84
2022/03/07 03:05:11;;;;;;;11.20;6.90;;;;;;;0.92;64.34;102038.84;4964701;28;20464;-84
2022/03/07 03:07:37;;;;;;;9.00;6.03;;;;;;;0.88;64.32;102047.25;4972654;28;20057;-85
2022/03/07 03:10:05;;;;;;;9.38;6.03;;;;;;;0.87;64.76;102040.31;4946754;28;20050;-84
2022/03/07 03:12:32;;;;;;;9.40;6.30;;;;;;;0.88;64.97;102030.91;4966012;28;20073;-85
2022/03/07 03:14:58;;;;;;;10.13;7.00;;;;;;;0.88;65.04;102030.91;4944072;28;20050;-84
2022/03/07 03:17:26;;;;;;;9.40;7.18;;;;;;;0.89;65.15;102033.56;4948073;28;20049;-84
2022/03/07 03:19:54;;;;;;;8.88;7.65;;;;;;;0.89;65.23;102033.56;4957998;28;20102;-84
2022/03/07 03:22:20;;;;;;;7.13;6.35;;;;;;;0.86;64.90;102032.50;4957962;28;20058;-84
2022/03/07 03:24:48;;;;;;;11.07;6.32;;;;;;;0.84;65.69;102031.56;4965269;28;20051;-84
2022/03/07 03:27:15;;;;;;;8.55;6.78;;;;;;;0.79;65.96;102036.44;4951808;28;20806;-84
2022/03/07 03:29:41;;;;;;;9.35;7.35;;;;;;;0.72;65.72;102036.91;4966248;28;20501;-84
2022/03/07 03:32:08;;;;;;;10.48;7.03;;;;;;;0.64;65.76;102044.25;4949275;28;20053;-83
2022/03/07 03:34:35;;;;;;;8.95;6.60;;;;;;;0.57;66.16;102045.59;4963519;28;20406;-84
2022/03/07 03:37:01;;;;;;;7.78;6.35;;;;;;;0.54;66.45;102037.69;4962062;28;20056;-84
2022/03/07 03:39:28;;;;;;;8.35;6.63;;;;;;;0.48;66.73;102034.78;4942875;28;20080;-84
2022/03/07 03:41:54;;;;;;;9.35;7.65;;;;;;;0.42;67.32;102037.94;4962921;28;20056;-83
2022/03/07 03:44:21;;;;;;;8.60;6.80;;;;;;;0.35;67.29;102042.66;4952080;28;20069;-84
2022/03/07 03:46:47;;;;;;;8.52;6.78;;;;;;;0.22;68.28;102039.41;4960264;28;20132;-84
2022/03/07 03:49:14;;;;;;;8.52;6.25;;;;;;;0.04;68.19;102043.50;4947798;28;20062;-84
2022/03/07 03:51:40;;;;;;;9.98;8.43;;;;;;;-0.17;69.11;102037.25;4946568;28;20054;-84
2022/03/07 03:54:07;;;;;;;9.27;7.45;;;;;;;-0.35;70.71;102029.34;4948178;28;20481;-84
2022/03/07 03:56:33;;;;;;;11.63;8.63;;;;;;;-0.51;71.30;102035.28;4959858;28;20136;-84
2022/03/07 03:59:00;;;;;;;11.68;8.43;;;;;;;-0.64;72.46;102037.91;4964305;28;20046;-83
2022/03/07 04:01:26;;;;;;;10.15;8.13;;;;;;;-0.76;72.86;102026.94;4966422;28;20046;-85
2022/03/07 04:03:52;;;;;;;13.85;8.50;;;;;;;-0.87;73.37;102026.28;4945107;28;20057;-84
2022/03/07 04:06:19;;;;;;;12.80;8.77;;;;;;;-0.98;74.65;102033.34;4953910;28;20141;-83
2022/03/07 04:08:47;;;;;;;12.52;8.85;;;;;;;-1.08;75.14;102031.91;4943908;28;20042;-84
2022/03/07 04:11:13;;;;;;;11.68;8.18;;;;;;;-1.15;75.68;102034.88;4955377;28;20064;-85
2022/03/07 04:13:40;;;;;;;12.40;8.13;;;;;;;-1.23;76.14;102033.53;4945851;28;20100;-84
2022/03/07 04:16:07;;;;;;;10.48;7.90;;;;;;;-1.30;76.55;102036.50;4952896;28;20042;-84
2022/03/07 04:18:33;;;;;;;8.75;7.03;;;;;;;-1.38;76.31;102044.66;4948016;28;20084;-83
2022/03/07 04:20:59;;;;;;;11.38;7.97;;;;;;;-1.45;76.26;102050.19;4944238;28;20370;-84
2022/03/07 04:23:26;;;;;;;12.00;7.38;;;;;;;-1.53;76.93;102035.97;4942689;28;20058;-84
2022/03/07 04:25:52;;;;;;;13.48;8.75;;;;;;;-1.57;77.49;102037.47;4965409;28;20057;-83
2022/03/07 04:28:19;;;;;;;11.80;7.57;;;;;;;-1.62;77.24;102045.69;4958065;28;20304;-84
2022/03/07 04:30:45;;;;;;;12.43;7.65;;;;;;;-1.68;77.99;102041.94;4962557;28;20057;-84
2022/03/07 04:33:12;;;;;;;12.95;7.68;;;;;;;-1.74;78.06;102045.78;4960113;28;20042;-83
2022/03/07 04:35:39;;;;;;;11.85;8.75;;;;;;;-1.81;78.42;102041.03;4963989;28;20069;-83
2022/03/07 04:38:06;;;;;;;12.00;7.35;;;;;;;-1.88;78.90;102039.78;4939173;28;20046;-84
2022/03/07 04:40:32;;;;;;;10.95;8.07;;;;;;;-1.93;79.25;102039.50;4967959;28;20069;-84
2022/03/07 04:43:01;;;;;;;11.38;8.55;;;;;;;-1.95;79.93;102042.75;4946397;28;20042;-84
2022/03/07 04:45:28;;;;;;;10.07;7.35;;;;;;;-1.97;80.03;102039.19;4949672;28;20050;-84
2022/03/07 04:47:54;;;;;;;8.82;7.35;;;;;;;-1.98;79.61;102047.66;4962231;28;20039;-84
2022/03/07 04:50:21;;;;;;;11.35;8.80;;;;;;;-2.01;79.84;102041.56;4944713;28;20445;-84
2022/03/07 04:52:47;;;;;;;9.75;8.50;;;;;;;-2.03;79.93;102043.13;4961247;28;20448;-84
2022/03/07 04:55:14;;;;;;;11.77;8.38;;;;;;;-2.03;80.57;102045.69;4967254;28;20042;-83
2022/03/07 04:57:43;;;;;;;11.55;8.02;;;;;;;-2.04;80.22;102053.31;4960368;28;20495;-84
2022/03/07 05:00:11;;;;;;;11.55;8.40;;;;;;;-2.06;80.19;102055.78;4967695;28;20042;-84
2022/03/07 05:02:37;;;;;;;11.75;8.60;;;;;;;-2.08;80.45;102057.34;4947646;28;20037;-84
2022/03/07 05:05:04;;;;;;;17.42;8.23;;;;;;;-2.09;80.64;102057.25;4947793;28;20065;-84
2022/03/07 05:07:30;;;;;;;9.90;8.18;;;;;;;-2.06;80.86;102060.91;4946110;28;20046;-83
2022/03/07 05:09:57;;;;;;;13.85;9.00;;;;;;;-2.05;80.84;102062.66;4961385;28;20104;-84
2022/03/07 05:12:24;;;;;;;9.77;7.38;;;;;;;-2.05;80.63;102065.22;4949067;28;20062;-84
2022/03/07 05:14:51;;;;;;;11.55;8.00;;;;;;;-2.06;80.68;102062.56;4962803;28;20050;-85
2022/03/07 05:17:17;;;;;;;10.88;7.00;;;;;;;-2.08;80.19;102067.59;4949786;28;20050;-83
2022/03/07 05:19:45;;;;;;;13.57;7.78;;;;;;;-2.11;80.49;102069.97;4943423;28;20827;-85
2022/03/07 05:22:12;;;;;;;15.40;9.15;;;;;;;-2.15;80.60;102065.44;4959980;28;20219;-84
2022/03/07 05:24:38;;;;;;;13.43;7.70;;;;;;;-2.19;80.82;102072.03;4978573;28;20092;-84
2022/03/07 05:27:05;;;;;;;14.00;9.38;;;;;;;-2.18;82.41;102071.25;4961783;28;20050;-84
2022/03/07 05:29:32;;;;;;;14.50;8.93;;;;;;;-2.18;81.36;102075.47;4954764;28;20046;-84
2022/03/07 05:31:58;;;;;;;11.50;8.63;;;;;;;-2.21;82.40;102068.47;4964736;28;20054;-84
2022/03/07 05:34:25;;;;;;;16.50;9.48;;;;;;;-2.22;82.44;102087.22;4958619;28;20055;-84
2022/03/07 05:36:51;;;;;;;15.35;9.30;;;;;;;-2.25;82.36;102076.75;4946105;28;20057;-83
2022/03/07 05:39:18;;;;;;;15.13;8.98;;;;;;;-2.25;83.53;102071.63;4964083;28;20050;-84
2022/03/07 05:41:44;;;;;;;13.82;8.18;;;;;;;-2.26;83.53;102077.53;4959569;28;20112;-83
2022/03/07 05:44:11;;;;;;;17.42;9.43;;;;;;;-2.29;83.24;102069.66;4949688;28;20058;-84
2022/03/07 05:46:37;;;;;;;12.15;8.48;;;;;;;-2.30;83.86;102075.56;4950895;28;20053;-84
2022/03/07 05:49:04;;;;;;;11.73;8.65;;;;;;;-2.32;83.64;102079.72;4968479;28;20047;-83
2022/03/07 05:51:32;;;;;;;11.20;8.80;;;;;;;-2.35;84.97;102082.06;4968556;28;20048;-83
2022/03/07 05:53:58;;;;;;;15.07;10.05;;;;;;;-2.36;85.28;102076.06;4960065;28;20290;-84
2022/03/07 05:56:25;;;;;;;12.00;8.40;;;;;;;-2.34;85.43;102081.28;4951631;28;20129;-83
2022/03/07 05:58:52;;;;;;;16.70;8.52;;;;;;;-2.34;85.79;102083.84;4966842;28;20054;-84
2022/03/07 06:01:19;;;;;;;14.07;8.27;;;;;;;-2.32;86.06;102084.84;4966378;28;20046;-84
2022/03/07 06:03:45;;;;;;;15.98;9.00;;;;;;;-2.34;85.73;102089.84;4964111;28;20054;-84
2022/03/07 06:06:11;;;;;;;11.93;8.52;;;;;;;-2.35;86.51;102088.09;4940454;28;20368;-84
2022/03/07 06:08:38;;;;;;;14.23;8.32;;;;;;;-2.36;86.38;102081.19;4965412;28;20057;-84
2022/03/07 06:11:05;;;;;;;13.50;9.55;;;;;;;-2.36;86.44;102082.84;4963722;28;20057;-84
2022/03/07 06:13:31;;;;;;;13.50;8.32;;;;;;;-2.35;87.10;102085.53;4945424;28;20070;-84
2022/03/07 06:15:58;;;;;;;16.27;11.52;;;;;;;-2.33;87.33;102090.75;4957782;28;20052;-83
2022/03/07 06:18:25;;;;;;;13.18;9.30;;;;;;;-2.31;87.37;102090.84;4958697;28;20121;-83
2022/03/07 06:20:51;;;;;;;15.02;10.07;;;;;;;-2.28;87.79;102097.09;4956068;28;20498;-83
2022/03/07 06:23:19;;;;;;;15.50;9.45;;;;;;;-2.26;87.31;102104.88;4944218;28;20058;-83
2022/03/07 06:25:45;;;;;;;13.10;10.05;;;;;;;-2.27;87.49;102100.53;4941430;28;20756;-83
2022/03/07 06:28:12;;;;;;;18.50;10.27;;;;;;;-2.25;87.92;102096.41;4962798;28;20343;-83
2022/03/07 06:30:39;;;;;;;15.25;10.38;;;;;;;-2.21;88.49;102090.69;4948223;28;20046;-83
2022/03/07 06:33:05;;;;;;;14.05;10.38;;;;;;;-2.18;88.68;102085.75;4961729;28;20190;-83
2022/03/07 06:35:32;;;;;;;16.17;9.63;;;;;;;-2.16;88.33;102085.06;4964491;28;20050;-83
2022/03/07 06:37:58;;;;;;;14.77;9.43;;;;;;;-2.14;87.95;102074.88;4956191;28;20042;-83
2022/03/07 06:40:27;;;;;;;16.63;9.40;;;;;;;-2.12;88.25;102075.88;4946111;28;20058;-84
2022/03/07 06:42:53;;;;;;;24.42;10.13;;;;;;;-2.05;88.67;102079.75;4958579;28;20054;-83
2022/03/07 06:45:20;;;;;;;14.52;9.32;;;;;;;-2.00;88.80;102080.94;4953505;28;20054;-83
2022/03/07 06:47:48;;;;;;;15.65;10.32;;;;;;;-1.97;89.13;102085.38;4946965;28;20109;-83
2022/03/07 06:50:16;;;;;;;26.27;11.32;;;;;;;-1.93;89.10;102092.47;4950076;28;20050;-83
2022/03/07 06:52:42;;;;;;;14.85;9.90;;;;;;;-1.91;88.60;102093.47;4949385;28;20141;-83
2022/03/07 06:55:10;;;;;;;19.17;9.38;;;;;;;-1.86;88.38;102095.56;4950744;28;20703;-82
2022/03/07 06:57:36;;;;;;;15.02;9.93;;;;;;;-1.80;88.16;102109.56;4958044;28;20413;-83
2022/03/07 07:00:09;;;;;;;18.63;11.15;;;;;;;-1.70;89.64;102110.25;4951477;28;20532;-83
2022/03/07 07:02:36;;;;;;;19.50;11.35;;;;;;;-1.53;89.70;102107.88;4964507;28;20057;-83
2022/03/07 07:05:05;;;;;;;14.80;10.68;;;;;;;-1.15;88.08;102103.41;4951082;28;20054;-83
2022/03/07 07:07:32;;;;;;;15.52;11.35;;;;;;;-0.62;86.44;102095.50;4958679;28;20050;-84
2022/03/07 07:09:59;;;;;;;16.65;10.82;;;;;;;-0.08;84.82;102098.66;4961090;28;20043;-84
2022/03/07 07:12:26;;;;;;;12.55;10.55;;;;;;;0.45;82.42;102096.47;4960586;28;20058;-84
2022/03/07 07:14:52;;;;;;;14.32;9.95;;;;;;;0.98;80.44;102106.22;4947875;28;20060;-83
2022/03/07 07:17:19;;;;;;;14.40;10.20;;;;;;;1.50;78.18;102104.63;4951913;28;20053;-83
2022/03/07 07:19:45;;;;;;;15.45;10.90;;;;;;;1.91;76.49;102110.13;4944895;28;20107;-84
2022/03/07 07:22:12;;;;;;;13.82;9.98;;;;;;;2.29;74.97;102108.53;4965152;28;20046;-84
2022/03/07 07:24:38;;;;;;;22.13;11.02;;;;;;;2.64;74.00;102107.63;4966234;28;20050;-85
2022/03/07 07:27:05;;;;;;;14.23;9.85;;;;;;;2.97;72.78;102112.59;4966700;28;20132;-85
2022/03/07 07:29:32;;;;;;;13.70;10.63;;;;;;;3.26;71.09;102113.03;4961592;28;20049;-84
2022/03/07 07:31:58;;;;;;;14.05;9.98;;;;;;;3.48;70.19;102109.69;4951227;28;20236;-85
2022/03/07 07:34:25;;;;;;;14.38;9.73;;;;;;;3.69;69.62;102110.53;4948805;28;20053;-86
2022/03/07 07:36:52;;;;;;;13.52;9.40;;;;;;;3.88;69.42;102115.66;4960014;28;20128;-85
2022/03/07 07:39:18;;;;;;;13.70;9.70;;;;;;;4.14;68.10;102121.94;4957282;28;20157;-84
2022/03/07 07:41:45;;;;;;;13.88;9.50;;;;;;;4.48;67.88;102117.22;4967255;28;20105;-85
2022/03/07 07:44:11;;;;;;;15.02;8.20;;;;;;;4.79;66.37;102121.03;4944201;28;20058;-85
2022/03/07 07:46:38;;;;;;;16.63;11.35;;;;;;;5.10;65.38;102124.78;4958942;28;20058;-85
2022/03/07 07:49:05;;;;;;;13.63;10.65;;;;;;;5.49;64.15;102121.88;4957688;28;20053;-86
2022/03/07 07:51:32;;;;;;;13.60;8.90;;;;;;;5.82;63.50;102121.28;4944652;28;20437;-85
2022/03/07 07:54:00;;;;;;;16.20;8.63;;;;;;;6.10;61.98;102130.94;4963465;28;20613;-86
2022/03/07 07:56:26;;;;;;;15.25;8.90;;;;;;;6.33;61.70;102125.59;4956876;28;20042;-85
2022/03/07 07:58:53;;;;;;;13.63;9.13;;;;;;;6.51;60.97;102125.31;4963824;28;20051;-85
2022/03/07 08:01:20;;;;;;;15.55;9.30;;;;;;;6.13;60.88;102124.97;4962748;28;20061;-85
2022/03/07 08:03:46;;;;;;;17.35;9.73;;;;;;;5.40;62.05;102121.56;4944875;28;20216;-85
2022/03/07 08:06:13;;;;;;;18.05;10.93;;;;;;;4.53;63.97;102120.91;4963178;28;20074;-85
2022/03/07 08:08:40;;;;;;;15.65;10.32;;;;;;;3.75;65.89;102119.44;4938088;28;20060;-85
2022/03/07 08:11:06;;;;;;;17.27;10.88;;;;;;;3.13;67.29;102127.13;4958285;28;20062;-84
2022/03/07 08:13:33;;;;;;;22.25;11.32;;;;;;;2.60;69.38;102125.50;4959861;28;20050;-85
2022/03/07 08:16:00;;;;;;;11.90;10.68;;;;;;;2.22;70.60;102128.03;4958614;28;20710;-84
2022/03/07 08:18:26;;;;;;;17.00;10.00;;;;;;;1.93;71.63;102129.16;4947966;28;20050;-84
2022/03/07 08:20:56;;;;;;;15.10;10.80;;;;;;;1.73;72.34;102135.91;4962519;28;20059;-85
2022/03/07 08:23:22;;;;;;;12.45;10.10;;;;;;;1.49;73.61;102124.38;4946840;28;20279;-84
2022/03/07 08:25:49;;;;;;;16.85;11.27;;;;;;;1.38;74.82;102129.78;4945816;28;20065;-85
2022/03/07 08:28:15;;;;;;;16.20;10.45;;;;;;;1.26;75.62;102137.78;4963882;28;20057;-84
2022/03/07 08:30:42;;;;;;;16.90;11.30;;;;;;;1.19;75.86;102140.81;4966012;28;20062;-84
2022/03/07 08:33:08;;;;;;;14.52;10.18;;;;;;;1.17;76.17;102142.44;4944795;28;20058;-84
2022/03/07 08:35:35;;;;;;;16.38;10.32;;;;;;;1.19;76.43;102131.41;4963766;28;20053;-85
2022/03/07 08:38:02;;;;;;;20.20;11.35;;;;;;;1.24;76.31;102136.78;4949458;28;20054;-84
2022/03/07 08:40:28;;;;;;;24.00;12.70;;;;;;;1.26;76.62;102133.50;4945798;28;20050;-85
2022/03/07 08:42:55;;;;;;;14.02;9.77;;;;;;;1.30;76.67;102132.88;4949897;28;20204;-85
2022/03/07 08:45:25;;;;;;;15.40;10.95;;;;;;;1.34;76.92;102135.59;4942435;28;20138;-85
2022/03/07 08:47:52;;;;;;;16.23;10.50;;;;;;;1.35;77.82;102145.13;4961516;28;20421;-85
2022/03/07 08:50:19;;;;;;;17.88;11.25;;;;;;;1.38;77.82;102147.84;4948606;28;20058;-85
2022/03/07 08:52:47;;;;;;;17.02;11.40;;;;;;;1.38;78.41;102142.69;4941784;28;20056;-85
2022/03/07 08:55:15;;;;;;;18.27;11.13;;;;;;;1.39;78.50;102142.75;4962479;28;20054;-85
2022/03/07 08:57:42;;;;;;;15.90;10.82;;;;;;;1.45;79.00;102147.38;4961517;28;20057;-85
2022/03/07 09:00:13;;;;;;;19.17;11.00;;;;;;;1.49;79.88;102152.75;4948759;28;21028;-84
2022/03/07 09:02:39;;;;;;;18.98;11.88;;;;;;;1.53;79.82;102150.38;4947296;28;20160;-85
2022/03/07 09:05:07;;;;;;;17.92;10.88;;;;;;;1.52;79.79;102149.47;4944005;28;20058;-85
2022/03/07 09:07:33;;;;;;;14.57;10.80;;;;;;;1.55;80.16;102151.31;4945421;28;20046;-85
2022/03/07 09:10:00;;;;;;;17.30;11.07;;;;;;;1.58;80.19;102151.50;4961351;28;20045;-85
2022/03/07 09:12:28;;;;;;;17.88;11.52;;;;;;;1.58;80.94;102152.38;4960507;28;20054;-85
2022/03/07 09:15:00;;;;;;;18.40;11.95;;;;;;;1.60;82.38;102155.03;4945702;28;20057;-85
2022/03/07 09:17:27;;;;;;;22.38;12.52;;;;;;;1.61;83.13;102159.38;4956067;28;20835;-84
2022/03/07 09:19:55;;;;;;;20.92;13.05;;;;;;;1.60;82.15;102148.19;4963441;28;20047;-85
2022/03/07 09:22:23;;;;;;;19.80;13.45;;;;;;;1.58;82.99;102151.50;4945085;28;20047;-85
2022/03/07 09:24:50;;;;;;;26.25;14.68;;;;;;;1.58;82.62;102157.53;4943082;28;20120;-85
2022/03/07 09:27:16;;;;;;;22.00;13.40;;;;;;;1.56;82.67;102160.84;4945128;28;20161;-85
2022/03/07 09:29:43;;;;;;;18.52;11.80;;;;;;;1.53;82.82;102148.66;4957919;28;20062;-85
2022/03/07 09:32:10;;;;;;;21.95;13.27;;;;;;;1.51;83.63;102146.81;4964403;28;20053;-85
2022/03/07 09:34:37;;;;;;;21.70;13.20;;;;;;;1.52;83.32;102149.47;4961659;28;20122;-86
2022/03/07 09:37:07;;;;;;;25.45;13.05;;;;;;;1.48;83.50;102148.41;4936727;28;20065;-85
2022/03/07 09:39:35;;;;;;;24.65;13.18;;;;;;;1.46;83.71;102150.03;4959446;28;20050;-85
2022/03/07 09:42:02;;;;;;;22.23;14.27;;;;;;;1.47;84.76;102151.81;4946456;28;20476;-84
2022/03/07 09:44:29;;;;;;;20.70;13.25;;;;;;;1.52;84.28;102146.88;4955017;28;20067;-84
2022/03/07 09:47:01;;;;;;;21.00;13.30;;;;;;;1.59;83.82;102153.25;4944102;28;20050;-85
2022/03/07 09:49:28;;;;;;;24.00;12.25;;;;;;;1.60;84.22;102153.34;4929262;28;20050;-85
2022/03/07 09:51:56;;;;;;;18.23;11.68;;;;;;;1.65;84.22;102151.00;4938437;28;20051;-85
2022/03/07 09:54:23;;;;;;;20.05;12.48;;;;;;;1.68;84.18;102158.88;4944160;28;20136;-85
2022/03/07 09:56:51;;;;;;;20.10;13.63;;;;;;;1.71;84.34;102155.56;4966781;28;20118;-85
2022/03/07 09:59:19;;;;;;;20.13;13.13;;;;;;;2.23;83.88;102159.91;4944179;28;20039;-85
2022/03/07 10:02:07;;;;;;;20.55;13.43;;;;;;;3.30;79.62;102152.88;4952347;28;20039;-85
2022/03/07 10:04:43;;;;;;;20.95;12.48;;;;;;;5.01;70.63;102150.41;4945574;28;20055;-85
2022/03/07 10:07:10;;;;;;;15.43;10.70;;;;;;;6.38;65.92;102146.56;4940335;28;20058;-86
2022/03/07 10:09:37;;;;;;;16.88;10.88;;;;;;;7.63;61.48;102139.84;4939811;28;20058;-86
2022/03/07 10:12:04;;;;;;;16.90;10.48;;;;;;;8.63;57.81;102141.50;4960314;28;20047;-85
2022/03/07 10:14:32;;;;;;;13.43;9.48;;;;;;;9.58;54.53;102142.63;4957076;28;20045;-86
2022/03/07 10:16:59;;;;;;;11.18;9.15;;;;;;;10.39;52.92;102138.78;4947070;28;20055;-86
2022/03/07 10:19:26;;;;;;;12.88;9.68;;;;;;;11.09;50.79;102136.31;4962530;28;20122;-86
2022/03/07 10:21:56;;;;;;;13.00;9.60;;;;;;;11.73;50.50;102139.63;4954496;28;20057;-86
2022/03/07 10:24:34;;;;;;;12.13;9.50;;;;;;;12.43;48.49;102138.53;4948922;28;20050;-86
2022/03/07 10:27:01;;;;;;;11.45;9.35;;;;;;;13.11;47.13;102125.75;4961733;28;20078;-86
2022/03/07 10:29:28;;;;;;;12.00;10.05;;;;;;;13.72;46.28;102132.13;4961613;28;20370;-86
2022/03/07 10:31:55;;;;;;;12.50;9.77;;;;;;;14.39;44.85;102139.16;4964084;28;20050;-86
2022/03/07 10:34:21;;;;;;;14.30;10.50;;;;;;;14.91;41.75;102137.31;4944131;28;20510;-86
2022/03/07 10:36:48;;;;;;;11.98;10.77;;;;;;;15.22;42.95;102126.66;4963807;28;20042;-86
2022/03/07 10:39:25;;;;;;;11.75;10.43;;;;;;;15.49;41.58;102136.19;4960897;28;20718;-86
2022/03/07 10:41:52;;;;;;;11.30;10.10;;;;;;;15.96;41.48;102125.34;4959098;28;20043;-86
2022/03/07 10:44:29;;;;;;;12.80;9.57;;;;;;;16.09;39.26;102126.09;4964225;28;20050;-86
2022/03/07 10:47:21;;;;;;;11.15;9.23;;;;;;;14.89;41.26;102136.47;4940694;28;20066;-86
2022/03/07 10:49:54;;;;;;;11.88;10.68;;;;;;;12.55;44.76;102135.09;4946617;28;20522;-86
2022/03/07 10:52:22;;;;;;;14.27;11.67;;;;;;;10.56;48.35;102153.03;4957071;28;20050;-86
2022/03/07 10:54:51;;;;;;;15.07;12.05;;;;;;;9.33;51.09;102154.28;4960979;28;20136;-86
2022/03/07 10:57:22;;;;;;;12.82;11.30;;;;;;;8.57;52.96;102155.28;4962398;28;20074;-86
2022/03/07 10:59:49;;;;;;;12.88;10.45;;;;;;;8.54;53.49;102160.44;4958231;28;20057;-85
2022/03/07 11:02:17;;;;;;;15.82;11.82;;;;;;;9.92;51.18;102152.78;4967380;28;20047;-86
2022/03/07 11:04:49;;;;;;;23.88;16.75;;;;;;;11.77;46.81;102143.16;4964961;28;20496;-86
2022/03/07 11:07:16;;;;;;;15.52;12.68;;;;;;;13.41;43.28;102142.56;4945518;28;20109;-86
2022/03/07 11:09:46;;;;;;;16.48;12.45;;;;;;;14.86;40.80;102139.09;4964473;28;20046;-85
2022/03/07 11:12:14;;;;;;;15.32;11.77;;;;;;;15.94;38.78;102124.47;4960568;28;20525;-86
2022/03/07 11:14:43;;;;;;;20.08;14.65;;;;;;;16.35;37.70;102116.19;4963045;28;20400;-86
2022/03/07 11:17:18;;;;;;;19.10;14.57;;;;;;;17.08;36.00;102114.53;4977841;28;20080;-86
2022/03/07 11:19:47;;;;;;;21.95;15.23;;;;;;;17.61;34.96;102112.03;4957469;28;20757;-87
2022/03/07 11:22:16;;;;;;;22.30;16.17;;;;;;;17.10;35.60;102105.69;4946944;28;20461;-86